sensor_id;sensor_type;location;lat;lon;timestamp;temperature;humidity
3488;DHT22;38546;48.170;11.724;2022-12-08T00:01:33;2.50;99.90
3488;DHT22;38546;48.170;11.724;2022-12-08T00:04:23;2.50;99.90
3488;DHT22;38546;48.170;11.724;2022-12-08T00:07:12;2.50;99.90
3488;DHT22;38546;48.170;11.724;2022-12-08T00:10:20;2.50;99.90
3488;DHT22;38546;48.170;11.724;2022-12-08T00:13:09;2.50;99.90
3488;DHT22;38546;48.170;11.724;2022-12-08T00:15:59;2.50;99.90
3488;DHT22;38546;48.170;11.724;2022-12-08T00:18:49;2.40;99.90
3488;DHT22;38546;48.170;11.724;2022-12-08T00:21:38;2.40;99.90
3488;DHT22;38546;48.170;11.724;2022-12-08T00:24:33;2.40;99.90
3488;DHT22;38546;48.170;11.724;2022-12-08T00:27:23;2.40;99.90
3488;DHT22;38546;48.170;11.724;2022-12-08T00:30:12;2.50;99.90
3488;DHT22;38546;48.170;11.724;2022-12-08T00:33:02;2.50;99.90
3488;DHT22;38546;48.170;11.724;2022-12-08T00:35:51;2.50;99.90
3488;DHT22;38546;48.170;11.724;2022-12-08T00:38:41;2.50;99.90
3488;DHT22;38546;48.170;11.724;2022-12-08T00:41:30;2.50;99.90
3488;DHT22;38546;48.170;11.724;2022-12-08T00:45:29;2.50;99.90
3488;DHT22;38546;48.170;11.724;2022-12-08T00:48:18;2.40;99.90
3488;DHT22;38546;48.170;11.724;2022-12-08T00:51:07;2.40;99.90
3488;DHT22;38546;48.170;11.724;2022-12-08T00:53:56;2.40;99.90
3488;DHT22;38546;48.170;11.724;2022-12-08T00:56:45;2.40;99.90
3488;DHT22;38546;48.170;11.724;2022-12-08T00:59:35;2.30;99.90
3488;DHT22;38546;48.170;11.724;2022-12-08T01:02:24;2.30;99.90
3488;DHT22;38546;48.170;11.724;2022-12-08T01:05:15;2.30;99.90
3488;DHT22;38546;48.170;11.724;2022-12-08T01:08:05;2.30;99.90
3488;DHT22;38546;48.170;11.724;2022-12-08T01:10:55;2.30;99.90
3488;DHT22;38546;48.170;11.724;2022-12-08T01:13:45;2.30;99.90
3488;DHT22;38546;48.170;11.724;2022-12-08T01:16:36;2.30;99.90
3488;DHT22;38546;48.170;11.724;2022-12-08T01:19:25;2.30;99.90
3488;DHT22;38546;48.170;11.724;2022-12-08T01:22:15;2.30;99.90
3488;DHT22;38546;48.170;11.724;2022-12-08T01:25:05;2.30;99.90
3488;DHT22;38546;48.170;11.724;2022-12-08T01:27:54;2.30;99.90
3488;DHT22;38546;48.170;11.724;2022-12-08T01:30:44;2.30;99.90
3488;DHT22;38546;48.170;11.724;2022-12-08T01:33:34;2.30;99.90
3488;DHT22;38546;48.170;11.724;2022-12-08T01:36:26;2.30;99.90
3488;DHT22;38546;48.170;11.724;2022-12-08T01:39:18;2.30;99.90
3488;DHT22;38546;48.170;11.724;2022-12-08T01:42:19;2.30;99.90
3488;DHT22;38546;48.170;11.724;2022-12-08T01:45:20;2.30;99.90
3488;DHT22;38546;48.170;11.724;2022-12-08T01:48:17;2.30;99.90
3488;DHT22;38546;48.170;11.724;2022-12-08T01:51:09;2.30;99.90
3488;DHT22;38546;48.170;11.724;2022-12-08T01:53:58;2.20;99.90
3488;DHT22;38546;48.170;11.724;2022-12-08T01:57:02;2.20;99.90
3488;DHT22;38546;48.170;11.724;2022-12-08T02:00:02;2.20;99.90
3488;DHT22;38546;48.170;11.724;2022-12-08T02:03:03;2.20;99.90
3488;DHT22;38546;48.170;11.724;2022-12-08T02:05:55;2.20;99.90
3488;DHT22;38546;48.170;11.724;2022-12-08T02:08:45;2.20;99.90
3488;DHT22;38546;48.170;11.724;2022-12-08T02:11:35;2.20;99.90
3488;DHT22;38546;48.170;11.724;2022-12-08T02:14:24;2.20;99.90
3488;DHT22;38546;48.170;11.724;2022-12-08T02:17:28;2.10;99.90
3488;DHT22;38546;48.170;11.724;2022-12-08T02:22:03;2.10;99.90
3488;DHT22;38546;48.170;11.724;2022-12-08T02:25:31;2.10;99.90
3488;DHT22;38546;48.170;11.724;2022-12-08T02:32:36;2.00;99.90
3488;DHT22;38546;48.170;11.724;2022-12-08T02:37:15;2.00;99.90
3488;DHT22;38546;48.170;11.724;2022-12-08T02:40:27;2.00;99.90
3488;DHT22;38546;48.170;11.724;2022-12-08T02:43:34;2.00;99.90
3488;DHT22;38546;48.170;11.724;2022-12-08T02:46:31;2.00;99.90
3488;DHT22;38546;48.170;11.724;2022-12-08T02:49:34;2.00;99.90
3488;DHT22;38546;48.170;11.724;2022-12-08T02:52:45;2.00;99.90
3488;DHT22;38546;48.170;11.724;2022-12-08T03:03:28;2.00;99.90
3488;DHT22;38546;48.170;11.724;2022-12-08T03:10:07;2.00;99.90
3488;DHT22;38546;48.170;11.724;2022-12-08T03:13:12;2.00;99.90
3488;DHT22;38546;48.170;11.724;2022-12-08T03:16:06;2.00;99.90
3488;DHT22;38546;48.170;11.724;2022-12-08T03:19:15;1.90;99.90
3488;DHT22;38546;48.170;11.724;2022-12-08T03:22:08;1.90;99.90
3488;DHT22;38546;48.170;11.724;2022-12-08T03:24:59;1.90;99.90
3488;DHT22;38546;48.170;11.724;2022-12-08T03:27:50;1.90;99.90
3488;DHT22;38546;48.170;11.724;2022-12-08T03:30:43;1.90;99.90
3488;DHT22;38546;48.170;11.724;2022-12-08T03:33:37;1.90;99.90
3488;DHT22;38546;48.170;11.724;2022-12-08T03:36:29;1.90;99.90
3488;DHT22;38546;48.170;11.724;2022-12-08T03:39:18;1.80;99.90
3488;DHT22;38546;48.170;11.724;2022-12-08T03:42:08;1.80;99.90
3488;DHT22;38546;48.170;11.724;2022-12-08T03:44:58;1.70;99.90
3488;DHT22;38546;48.170;11.724;2022-12-08T03:47:47;1.70;99.90
3488;DHT22;38546;48.170;11.724;2022-12-08T03:50:37;1.60;99.90
3488;DHT22;38546;48.170;11.724;2022-12-08T03:53:26;1.60;99.90
3488;DHT22;38546;48.170;11.724;2022-12-08T03:56:30;1.60;99.90
3488;DHT22;38546;48.170;11.724;2022-12-08T03:59:21;1.60;99.90
3488;DHT22;38546;48.170;11.724;2022-12-08T04:02:10;1.60;99.90
3488;DHT22;38546;48.170;11.724;2022-12-08T04:05:00;1.60;99.90
3488;DHT22;38546;48.170;11.724;2022-12-08T04:07:49;1.60;99.90
3488;DHT22;38546;48.170;11.724;2022-12-08T04:10:38;1.60;99.90
3488;DHT22;38546;48.170;11.724;2022-12-08T04:13:28;1.60;99.90
3488;DHT22;38546;48.170;11.724;2022-12-08T04:16:22;1.60;99.90
3488;DHT22;38546;48.170;11.724;2022-12-08T04:19:12;1.60;99.90
3488;DHT22;38546;48.170;11.724;2022-12-08T04:22:03;1.60;99.90
3488;DHT22;38546;48.170;11.724;2022-12-08T04:24:52;1.60;99.90
3488;DHT22;38546;48.170;11.724;2022-12-08T04:27:41;1.60;99.90
3488;DHT22;38546;48.170;11.724;2022-12-08T04:30:31;1.60;99.90
3488;DHT22;38546;48.170;11.724;2022-12-08T04:33:21;1.60;99.90
3488;DHT22;38546;48.170;11.724;2022-12-08T04:36:11;1.60;99.90
3488;DHT22;38546;48.170;11.724;2022-12-08T04:39:00;1.60;99.90
3488;DHT22;38546;48.170;11.724;2022-12-08T04:41:49;1.60;99.90
3488;DHT22;38546;48.170;11.724;2022-12-08T04:44:39;1.60;99.90
3488;DHT22;38546;48.170;11.724;2022-12-08T04:47:28;1.60;99.90
3488;DHT22;38546;48.170;11.724;2022-12-08T04:50:18;1.60;99.90
3488;DHT22;38546;48.170;11.724;2022-12-08T04:53:08;1.60;99.90
3488;DHT22;38546;48.170;11.724;2022-12-08T04:55:58;1.60;99.90
3488;DHT22;38546;48.170;11.724;2022-12-08T04:58:47;1.60;99.90
3488;DHT22;38546;48.170;11.724;2022-12-08T05:01:37;1.70;99.90
3488;DHT22;38546;48.170;11.724;2022-12-08T05:04:27;1.70;99.90
3488;DHT22;38546;48.170;11.724;2022-12-08T05:07:16;1.60;99.90
3488;DHT22;38546;48.170;11.724;2022-12-08T05:10:07;1.70;99.90
3488;DHT22;38546;48.170;11.724;2022-12-08T05:12:58;1.70;99.90
3488;DHT22;38546;48.170;11.724;2022-12-08T05:15:48;1.70;99.90
3488;DHT22;38546;48.170;11.724;2022-12-08T05:18:39;1.70;99.90
3488;DHT22;38546;48.170;11.724;2022-12-08T05:21:29;1.70;99.90
3488;DHT22;38546;48.170;11.724;2022-12-08T05:24:18;1.70;99.90
3488;DHT22;38546;48.170;11.724;2022-12-08T05:27:09;1.70;99.90
3488;DHT22;38546;48.170;11.724;2022-12-08T05:29:59;1.80;99.90
3488;DHT22;38546;48.170;11.724;2022-12-08T05:32:49;1.80;99.90
3488;DHT22;38546;48.170;11.724;2022-12-08T05:35:38;1.80;99.90
3488;DHT22;38546;48.170;11.724;2022-12-08T05:38:28;1.80;99.90
3488;DHT22;38546;48.170;11.724;2022-12-08T05:41:19;1.80;99.90
3488;DHT22;38546;48.170;11.724;2022-12-08T05:44:08;1.80;99.90
3488;DHT22;38546;48.170;11.724;2022-12-08T05:46:58;1.80;99.90
3488;DHT22;38546;48.170;11.724;2022-12-08T05:49:47;1.90;99.90
3488;DHT22;38546;48.170;11.724;2022-12-08T05:52:37;1.90;99.90
3488;DHT22;38546;48.170;11.724;2022-12-08T05:55:26;1.90;99.90
3488;DHT22;38546;48.170;11.724;2022-12-08T05:58:17;1.90;99.90
3488;DHT22;38546;48.170;11.724;2022-12-08T06:01:27;1.90;99.90
3488;DHT22;38546;48.170;11.724;2022-12-08T06:04:19;1.90;99.90
3488;DHT22;38546;48.170;11.724;2022-12-08T06:07:08;1.90;99.90
3488;DHT22;38546;48.170;11.724;2022-12-08T06:09:58;1.90;99.90
3488;DHT22;38546;48.170;11.724;2022-12-08T06:12:47;1.90;99.90
3488;DHT22;38546;48.170;11.724;2022-12-08T06:15:37;1.90;99.90
3488;DHT22;38546;48.170;11.724;2022-12-08T06:18:27;1.90;99.90
3488;DHT22;38546;48.170;11.724;2022-12-08T06:21:17;1.90;99.90
3488;DHT22;38546;48.170;11.724;2022-12-08T06:24:07;1.90;99.90
3488;DHT22;38546;48.170;11.724;2022-12-08T06:26:57;1.90;99.90
3488;DHT22;38546;48.170;11.724;2022-12-08T06:29:46;1.90;99.90
3488;DHT22;38546;48.170;11.724;2022-12-08T06:32:36;2.00;99.90
3488;DHT22;38546;48.170;11.724;2022-12-08T06:35:26;2.10;99.90
3488;DHT22;38546;48.170;11.724;2022-12-08T06:38:15;2.10;99.90
3488;DHT22;38546;48.170;11.724;2022-12-08T06:41:04;1.90;99.90
3488;DHT22;38546;48.170;11.724;2022-12-08T06:43:55;1.90;99.90
3488;DHT22;38546;48.170;11.724;2022-12-08T06:46:45;1.80;99.90
3488;DHT22;38546;48.170;11.724;2022-12-08T06:49:34;1.80;99.90
3488;DHT22;38546;48.170;11.724;2022-12-08T06:52:24;1.70;99.90
3488;DHT22;38546;48.170;11.724;2022-12-08T06:55:12;1.70;99.90
3488;DHT22;38546;48.170;11.724;2022-12-08T06:58:01;1.70;99.90
3488;DHT22;38546;48.170;11.724;2022-12-08T07:00:51;1.70;99.90
3488;DHT22;38546;48.170;11.724;2022-12-08T07:03:40;1.70;99.90
3488;DHT22;38546;48.170;11.724;2022-12-08T07:06:31;1.70;99.90
3488;DHT22;38546;48.170;11.724;2022-12-08T07:09:20;1.70;99.90
3488;DHT22;38546;48.170;11.724;2022-12-08T07:12:10;1.70;99.90
3488;DHT22;38546;48.170;11.724;2022-12-08T07:15:00;1.70;99.90
3488;DHT22;38546;48.170;11.724;2022-12-08T07:17:48;1.70;99.90
3488;DHT22;38546;48.170;11.724;2022-12-08T07:20:38;1.70;99.90
3488;DHT22;38546;48.170;11.724;2022-12-08T07:23:27;1.80;99.90
3488;DHT22;38546;48.170;11.724;2022-12-08T07:26:16;1.80;99.90
3488;DHT22;38546;48.170;11.724;2022-12-08T07:29:05;1.90;99.90
3488;DHT22;38546;48.170;11.724;2022-12-08T07:31:54;2.00;99.90
3488;DHT22;38546;48.170;11.724;2022-12-08T07:34:43;2.10;99.90
3488;DHT22;38546;48.170;11.724;2022-12-08T07:37:33;2.30;99.90
3488;DHT22;38546;48.170;11.724;2022-12-08T07:40:23;2.30;99.90
3488;DHT22;38546;48.170;11.724;2022-12-08T07:43:12;2.30;99.90
3488;DHT22;38546;48.170;11.724;2022-12-08T07:46:01;2.40;99.90
3488;DHT22;38546;48.170;11.724;2022-12-08T07:48:52;2.40;99.90
3488;DHT22;38546;48.170;11.724;2022-12-08T07:51:42;2.50;99.90
3488;DHT22;38546;48.170;11.724;2022-12-08T07:54:30;2.60;99.90
3488;DHT22;38546;48.170;11.724;2022-12-08T07:57:19;2.60;99.90
3488;DHT22;38546;48.170;11.724;2022-12-08T08:00:09;2.70;99.90
3488;DHT22;38546;48.170;11.724;2022-12-08T08:02:59;2.80;99.90
3488;DHT22;38546;48.170;11.724;2022-12-08T08:05:49;2.90;99.90
3488;DHT22;38546;48.170;11.724;2022-12-08T08:08:39;3.00;99.90
3488;DHT22;38546;48.170;11.724;2022-12-08T08:11:28;3.10;99.90
3488;DHT22;38546;48.170;11.724;2022-12-08T08:14:18;3.20;99.90
3488;DHT22;38546;48.170;11.724;2022-12-08T08:17:08;3.30;99.90
3488;DHT22;38546;48.170;11.724;2022-12-08T08:19:57;3.40;99.90
3488;DHT22;38546;48.170;11.724;2022-12-08T08:22:48;3.40;99.90
3488;DHT22;38546;48.170;11.724;2022-12-08T08:25:38;3.50;99.90
3488;DHT22;38546;48.170;11.724;2022-12-08T08:28:28;3.60;99.90
3488;DHT22;38546;48.170;11.724;2022-12-08T08:31:17;3.60;99.90
3488;DHT22;38546;48.170;11.724;2022-12-08T08:34:13;3.60;99.90
3488;DHT22;38546;48.170;11.724;2022-12-08T08:37:02;3.60;99.90
3488;DHT22;38546;48.170;11.724;2022-12-08T08:39:52;3.60;99.90
3488;DHT22;38546;48.170;11.724;2022-12-08T08:42:42;3.70;99.90
3488;DHT22;38546;48.170;11.724;2022-12-08T08:45:32;3.70;99.90
3488;DHT22;38546;48.170;11.724;2022-12-08T08:48:25;3.80;99.90
3488;DHT22;38546;48.170;11.724;2022-12-08T08:51:16;3.80;99.90
3488;DHT22;38546;48.170;11.724;2022-12-08T08:54:06;3.80;99.90
3488;DHT22;38546;48.170;11.724;2022-12-08T08:56:56;3.80;99.90
3488;DHT22;38546;48.170;11.724;2022-12-08T08:59:47;3.80;99.90
3488;DHT22;38546;48.170;11.724;2022-12-08T09:02:37;3.80;99.90
3488;DHT22;38546;48.170;11.724;2022-12-08T09:05:26;3.80;99.90
3488;DHT22;38546;48.170;11.724;2022-12-08T09:08:16;3.80;99.90
3488;DHT22;38546;48.170;11.724;2022-12-08T09:11:06;3.80;99.90
3488;DHT22;38546;48.170;11.724;2022-12-08T09:13:55;3.90;99.90
3488;DHT22;38546;48.170;11.724;2022-12-08T09:16:45;4.00;99.90
3488;DHT22;38546;48.170;11.724;2022-12-08T09:19:35;4.00;99.90
3488;DHT22;38546;48.170;11.724;2022-12-08T09:22:25;4.10;99.90
3488;DHT22;38546;48.170;11.724;2022-12-08T09:25:15;4.20;99.90
3488;DHT22;38546;48.170;11.724;2022-12-08T09:28:04;4.30;99.90
3488;DHT22;38546;48.170;11.724;2022-12-08T09:30:53;4.30;99.90
3488;DHT22;38546;48.170;11.724;2022-12-08T09:33:42;4.50;99.90
3488;DHT22;38546;48.170;11.724;2022-12-08T09:36:32;4.50;99.90
3488;DHT22;38546;48.170;11.724;2022-12-08T09:39:21;4.50;99.90
3488;DHT22;38546;48.170;11.724;2022-12-08T09:42:11;4.70;99.90
3488;DHT22;38546;48.170;11.724;2022-12-08T09:45:10;4.80;99.90
3488;DHT22;38546;48.170;11.724;2022-12-08T09:48:20;4.80;99.90
3488;DHT22;38546;48.170;11.724;2022-12-08T09:51:13;5.10;99.90
3488;DHT22;38546;48.170;11.724;2022-12-08T09:54:30;5.10;99.90
3488;DHT22;38546;48.170;11.724;2022-12-08T09:57:28;5.30;99.90
3488;DHT22;38546;48.170;11.724;2022-12-08T10:00:20;5.10;99.90
3488;DHT22;38546;48.170;11.724;2022-12-08T10:03:11;5.00;99.90
3488;DHT22;38546;48.170;11.724;2022-12-08T10:12:18;5.10;99.90
3488;DHT22;38546;48.170;11.724;2022-12-08T10:20:12;4.90;99.90
3488;DHT22;38546;48.170;11.724;2022-12-08T10:23:38;4.70;99.90
3488;DHT22;38546;48.170;11.724;2022-12-08T10:26:31;4.70;99.90
3488;DHT22;38546;48.170;11.724;2022-12-08T10:29:21;4.90;99.90
3488;DHT22;38546;48.170;11.724;2022-12-08T10:32:18;4.80;99.90
3488;DHT22;38546;48.170;11.724;2022-12-08T10:35:11;4.80;99.90
3488;DHT22;38546;48.170;11.724;2022-12-08T10:38:02;4.50;99.90
3488;DHT22;38546;48.170;11.724;2022-12-08T10:45:32;4.30;99.90
3488;DHT22;38546;48.170;11.724;2022-12-08T10:48:28;4.40;99.90
3488;DHT22;38546;48.170;11.724;2022-12-08T10:51:39;4.40;99.90
3488;DHT22;38546;48.170;11.724;2022-12-08T10:54:33;4.40;99.90
3488;DHT22;38546;48.170;11.724;2022-12-08T10:57:26;4.60;99.90
3488;DHT22;38546;48.170;11.724;2022-12-08T11:00:26;4.60;99.90
3488;DHT22;38546;48.170;11.724;2022-12-08T11:03:27;4.50;99.90
3488;DHT22;38546;48.170;11.724;2022-12-08T11:06:24;4.40;99.90
3488;DHT22;38546;48.170;11.724;2022-12-08T11:09:24;4.50;99.90
3488;DHT22;38546;48.170;11.724;2022-12-08T11:12:20;4.60;99.90
3488;DHT22;38546;48.170;11.724;2022-12-08T11:15:15;4.60;99.90
3488;DHT22;38546;48.170;11.724;2022-12-08T11:18:17;4.60;99.90
3488;DHT22;38546;48.170;11.724;2022-12-08T11:21:16;4.80;99.90
3488;DHT22;38546;48.170;11.724;2022-12-08T11:24:24;4.70;99.90
3488;DHT22;38546;48.170;11.724;2022-12-08T11:27:15;4.60;99.90
3488;DHT22;38546;48.170;11.724;2022-12-08T11:30:19;4.60;99.90
3488;DHT22;38546;48.170;11.724;2022-12-08T11:33:28;4.50;99.90
3488;DHT22;38546;48.170;11.724;2022-12-08T11:36:21;4.50;99.90
3488;DHT22;38546;48.170;11.724;2022-12-08T11:39:12;4.40;99.90
3488;DHT22;38546;48.170;11.724;2022-12-08T11:42:04;4.40;99.90
3488;DHT22;38546;48.170;11.724;2022-12-08T11:45:02;4.50;99.90
3488;DHT22;38546;48.170;11.724;2022-12-08T11:49:05;4.70;99.90
3488;DHT22;38546;48.170;11.724;2022-12-08T11:52:06;5.00;99.90
3488;DHT22;38546;48.170;11.724;2022-12-08T11:55:37;4.90;99.90
3488;DHT22;38546;48.170;11.724;2022-12-08T12:04:35;4.50;99.90
3488;DHT22;38546;48.170;11.724;2022-12-08T12:08:09;4.40;99.90
3488;DHT22;38546;48.170;11.724;2022-12-08T12:19:53;4.70;99.90
3488;DHT22;38546;48.170;11.724;2022-12-08T12:22:47;4.50;99.90
3488;DHT22;38546;48.170;11.724;2022-12-08T12:25:58;4.60;99.90
3488;DHT22;38546;48.170;11.724;2022-12-08T12:28:54;4.60;99.90
3488;DHT22;38546;48.170;11.724;2022-12-08T12:31:57;4.70;99.90
3488;DHT22;38546;48.170;11.724;2022-12-08T12:34:52;4.70;99.90
3488;DHT22;38546;48.170;11.724;2022-12-08T12:37:47;4.70;99.90
3488;DHT22;38546;48.170;11.724;2022-12-08T12:40:40;4.70;99.90
3488;DHT22;38546;48.170;11.724;2022-12-08T12:43:36;4.80;99.90
3488;DHT22;38546;48.170;11.724;2022-12-08T12:47:13;4.80;99.90
3488;DHT22;38546;48.170;11.724;2022-12-08T12:50:44;4.80;99.90
3488;DHT22;38546;48.170;11.724;2022-12-08T12:53:55;4.90;99.90
3488;DHT22;38546;48.170;11.724;2022-12-08T12:57:37;4.80;99.90
3488;DHT22;38546;48.170;11.724;2022-12-08T13:00:28;4.60;99.90
3488;DHT22;38546;48.170;11.724;2022-12-08T13:03:17;4.80;99.90
3488;DHT22;38546;48.170;11.724;2022-12-08T13:06:09;4.80;99.90
3488;DHT22;38546;48.170;11.724;2022-12-08T13:09:03;4.80;99.90
3488;DHT22;38546;48.170;11.724;2022-12-08T13:11:55;4.70;99.90
3488;DHT22;38546;48.170;11.724;2022-12-08T13:14:49;4.50;99.90
3488;DHT22;38546;48.170;11.724;2022-12-08T13:17:43;4.50;99.90
3488;DHT22;38546;48.170;11.724;2022-12-08T13:20:41;4.50;99.90
3488;DHT22;38546;48.170;11.724;2022-12-08T13:23:46;4.70;99.90
3488;DHT22;38546;48.170;11.724;2022-12-08T13:27:30;4.60;99.90
3488;DHT22;38546;48.170;11.724;2022-12-08T13:30:51;4.40;99.90
3488;DHT22;38546;48.170;11.724;2022-12-08T13:33:47;4.50;99.90
3488;DHT22;38546;48.170;11.724;2022-12-08T13:37:08;4.30;99.90
3488;DHT22;38546;48.170;11.724;2022-12-08T13:40:31;4.20;99.90
3488;DHT22;38546;48.170;11.724;2022-12-08T13:43:34;4.30;99.90
3488;DHT22;38546;48.170;11.724;2022-12-08T13:46:38;4.40;99.90
3488;DHT22;38546;48.170;11.724;2022-12-08T13:49:35;4.30;99.90
3488;DHT22;38546;48.170;11.724;2022-12-08T13:52:47;4.20;99.90
3488;DHT22;38546;48.170;11.724;2022-12-08T13:55:45;4.50;99.90
3488;DHT22;38546;48.170;11.724;2022-12-08T13:58:38;4.40;99.90
3488;DHT22;38546;48.170;11.724;2022-12-08T14:01:28;4.30;99.90
3488;DHT22;38546;48.170;11.724;2022-12-08T14:04:22;4.30;99.90
3488;DHT22;38546;48.170;11.724;2022-12-08T14:07:13;4.30;99.90
3488;DHT22;38546;48.170;11.724;2022-12-08T14:10:08;4.20;99.90
3488;DHT22;38546;48.170;11.724;2022-12-08T14:13:10;4.30;99.90
3488;DHT22;38546;48.170;11.724;2022-12-08T14:15:59;4.40;99.90
3488;DHT22;38546;48.170;11.724;2022-12-08T14:18:50;4.10;99.90
3488;DHT22;38546;48.170;11.724;2022-12-08T14:21:40;3.90;99.90
3488;DHT22;38546;48.170;11.724;2022-12-08T14:24:30;4.10;99.90
3488;DHT22;38546;48.170;11.724;2022-12-08T14:27:25;3.90;99.90
3488;DHT22;38546;48.170;11.724;2022-12-08T14:30:23;4.10;99.90
3488;DHT22;38546;48.170;11.724;2022-12-08T14:33:15;4.10;99.90
3488;DHT22;38546;48.170;11.724;2022-12-08T14:36:08;4.20;99.90
3488;DHT22;38546;48.170;11.724;2022-12-08T14:38:59;4.20;99.90
3488;DHT22;38546;48.170;11.724;2022-12-08T14:41:59;4.20;99.90
3488;DHT22;38546;48.170;11.724;2022-12-08T14:44:55;3.60;99.90
3488;DHT22;38546;48.170;11.724;2022-12-08T14:47:48;3.70;99.90
3488;DHT22;38546;48.170;11.724;2022-12-08T14:50:45;3.70;99.90
3488;DHT22;38546;48.170;11.724;2022-12-08T14:54:07;3.50;99.90
3488;DHT22;38546;48.170;11.724;2022-12-08T14:57:00;3.50;99.90
3488;DHT22;38546;48.170;11.724;2022-12-08T14:59:49;3.30;99.90
3488;DHT22;38546;48.170;11.724;2022-12-08T15:02:44;3.40;99.90
3488;DHT22;38546;48.170;11.724;2022-12-08T15:05:34;3.30;99.90
3488;DHT22;38546;48.170;11.724;2022-12-08T15:08:26;3.20;99.90
3488;DHT22;38546;48.170;11.724;2022-12-08T15:11:58;3.30;99.90
3488;DHT22;38546;48.170;11.724;2022-12-08T15:22:42;3.10;99.90
3488;DHT22;38546;48.170;11.724;2022-12-08T15:25:31;3.10;99.90
3488;DHT22;38546;48.170;11.724;2022-12-08T15:28:23;3.10;99.90
3488;DHT22;38546;48.170;11.724;2022-12-08T15:31:13;3.20;99.90
3488;DHT22;38546;48.170;11.724;2022-12-08T15:34:05;3.30;99.90
3488;DHT22;38546;48.170;11.724;2022-12-08T15:36:54;3.40;99.90
3488;DHT22;38546;48.170;11.724;2022-12-08T15:39:43;3.40;99.90
3488;DHT22;38546;48.170;11.724;2022-12-08T15:42:32;3.40;99.90
3488;DHT22;38546;48.170;11.724;2022-12-08T15:45:27;3.40;99.90
3488;DHT22;38546;48.170;11.724;2022-12-08T15:48:21;3.30;99.90
3488;DHT22;38546;48.170;11.724;2022-12-08T15:51:12;3.30;99.90
3488;DHT22;38546;48.170;11.724;2022-12-08T15:54:02;3.30;99.90
3488;DHT22;38546;48.170;11.724;2022-12-08T15:56:53;3.30;99.90
3488;DHT22;38546;48.170;11.724;2022-12-08T15:59:44;3.30;99.90
3488;DHT22;38546;48.170;11.724;2022-12-08T16:02:33;3.30;99.90
3488;DHT22;38546;48.170;11.724;2022-12-08T16:05:23;3.30;99.90
3488;DHT22;38546;48.170;11.724;2022-12-08T16:08:13;3.20;99.90
3488;DHT22;38546;48.170;11.724;2022-12-08T16:11:06;3.30;99.90
3488;DHT22;38546;48.170;11.724;2022-12-08T16:14:14;3.30;99.90
3488;DHT22;38546;48.170;11.724;2022-12-08T16:17:04;3.30;99.90
3488;DHT22;38546;48.170;11.724;2022-12-08T16:19:54;3.40;99.90
3488;DHT22;38546;48.170;11.724;2022-12-08T16:22:43;3.50;99.90
3488;DHT22;38546;48.170;11.724;2022-12-08T16:25:33;3.30;99.90
3488;DHT22;38546;48.170;11.724;2022-12-08T16:28:23;3.30;99.90
3488;DHT22;38546;48.170;11.724;2022-12-08T16:31:13;3.30;99.90
3488;DHT22;38546;48.170;11.724;2022-12-08T16:34:02;3.30;99.90
3488;DHT22;38546;48.170;11.724;2022-12-08T16:36:51;3.30;99.90
3488;DHT22;38546;48.170;11.724;2022-12-08T16:39:40;3.20;99.90
3488;DHT22;38546;48.170;11.724;2022-12-08T16:42:30;3.20;99.90
3488;DHT22;38546;48.170;11.724;2022-12-08T16:45:32;3.20;99.90
3488;DHT22;38546;48.170;11.724;2022-12-08T16:48:24;3.20;99.90
3488;DHT22;38546;48.170;11.724;2022-12-08T16:51:17;3.10;99.90
3488;DHT22;38546;48.170;11.724;2022-12-08T16:54:07;3.10;99.90
3488;DHT22;38546;48.170;11.724;2022-12-08T16:56:57;3.10;99.90
3488;DHT22;38546;48.170;11.724;2022-12-08T16:59:46;3.00;99.90
3488;DHT22;38546;48.170;11.724;2022-12-08T17:02:35;3.00;99.90
3488;DHT22;38546;48.170;11.724;2022-12-08T17:05:25;2.90;99.90
3488;DHT22;38546;48.170;11.724;2022-12-08T17:08:15;2.90;99.90
3488;DHT22;38546;48.170;11.724;2022-12-08T17:11:05;2.80;99.90
3488;DHT22;38546;48.170;11.724;2022-12-08T17:13:59;2.60;99.90
3488;DHT22;38546;48.170;11.724;2022-12-08T17:16:49;2.70;99.90
3488;DHT22;38546;48.170;11.724;2022-12-08T17:19:38;2.60;99.90
3488;DHT22;38546;48.170;11.724;2022-12-08T17:22:27;2.50;99.90
3488;DHT22;38546;48.170;11.724;2022-12-08T17:25:15;2.50;99.90
3488;DHT22;38546;48.170;11.724;2022-12-08T17:28:05;2.40;99.90
3488;DHT22;38546;48.170;11.724;2022-12-08T17:30:54;2.40;99.90
3488;DHT22;38546;48.170;11.724;2022-12-08T17:33:43;2.30;99.90
3488;DHT22;38546;48.170;11.724;2022-12-08T17:36:33;2.40;99.90
3488;DHT22;38546;48.170;11.724;2022-12-08T17:39:22;2.30;99.90
3488;DHT22;38546;48.170;11.724;2022-12-08T17:42:12;2.30;99.90
3488;DHT22;38546;48.170;11.724;2022-12-08T17:45:01;2.30;99.90
3488;DHT22;38546;48.170;11.724;2022-12-08T17:47:50;2.30;99.90
3488;DHT22;38546;48.170;11.724;2022-12-08T17:50:41;2.20;99.90
3488;DHT22;38546;48.170;11.724;2022-12-08T17:53:31;2.10;99.90
3488;DHT22;38546;48.170;11.724;2022-12-08T17:56:20;2.00;99.90
3488;DHT22;38546;48.170;11.724;2022-12-08T17:59:11;1.90;99.90
3488;DHT22;38546;48.170;11.724;2022-12-08T18:02:00;1.90;99.90
3488;DHT22;38546;48.170;11.724;2022-12-08T18:04:50;1.80;99.90
3488;DHT22;38546;48.170;11.724;2022-12-08T18:07:39;1.80;99.90
3488;DHT22;38546;48.170;11.724;2022-12-08T18:10:29;1.70;99.90
3488;DHT22;38546;48.170;11.724;2022-12-08T18:13:18;1.70;99.90
3488;DHT22;38546;48.170;11.724;2022-12-08T18:16:07;1.60;99.90
3488;DHT22;38546;48.170;11.724;2022-12-08T18:18:57;1.50;99.90
3488;DHT22;38546;48.170;11.724;2022-12-08T18:21:46;1.40;99.90
3488;DHT22;38546;48.170;11.724;2022-12-08T18:24:35;1.40;99.90
3488;DHT22;38546;48.170;11.724;2022-12-08T18:27:24;1.40;99.90
3488;DHT22;38546;48.170;11.724;2022-12-08T18:30:16;1.30;99.90
3488;DHT22;38546;48.170;11.724;2022-12-08T18:33:06;1.30;99.90
3488;DHT22;38546;48.170;11.724;2022-12-08T18:35:56;1.20;99.90
3488;DHT22;38546;48.170;11.724;2022-12-08T18:38:45;1.20;99.90
3488;DHT22;38546;48.170;11.724;2022-12-08T18:41:35;1.20;99.90
3488;DHT22;38546;48.170;11.724;2022-12-08T18:44:24;1.10;99.90
3488;DHT22;38546;48.170;11.724;2022-12-08T18:47:13;1.10;99.90
3488;DHT22;38546;48.170;11.724;2022-12-08T18:50:06;1.00;99.90
3488;DHT22;38546;48.170;11.724;2022-12-08T18:52:56;1.00;99.90
3488;DHT22;38546;48.170;11.724;2022-12-08T18:55:45;0.90;99.90
3488;DHT22;38546;48.170;11.724;2022-12-08T18:58:35;0.90;99.90
3488;DHT22;38546;48.170;11.724;2022-12-08T19:01:24;0.80;99.90
3488;DHT22;38546;48.170;11.724;2022-12-08T19:04:13;0.80;99.90
3488;DHT22;38546;48.170;11.724;2022-12-08T19:07:04;0.80;99.90
3488;DHT22;38546;48.170;11.724;2022-12-08T19:09:53;0.80;99.90
3488;DHT22;38546;48.170;11.724;2022-12-08T19:12:43;0.70;99.90
3488;DHT22;38546;48.170;11.724;2022-12-08T19:15:33;0.70;99.90
3488;DHT22;38546;48.170;11.724;2022-12-08T19:18:22;0.70;99.90
3488;DHT22;38546;48.170;11.724;2022-12-08T19:21:13;0.60;99.90
3488;DHT22;38546;48.170;11.724;2022-12-08T19:24:03;0.60;99.90
3488;DHT22;38546;48.170;11.724;2022-12-08T19:26:53;0.50;99.90
3488;DHT22;38546;48.170;11.724;2022-12-08T19:29:42;0.50;99.90
3488;DHT22;38546;48.170;11.724;2022-12-08T19:32:30;0.50;99.90